sensor_id;sensor_type;location;lat;lon;timestamp;P1;durP1;ratioP1;P2;durP2;ratioP2
45254;SDS011;30989;52.078;21.014;2022-10-17T00:00:34;22.38;;;11.50;;
45254;SDS011;30989;52.078;21.014;2022-10-17T00:03:00;22.58;;;11.60;;
45254;SDS011;30989;52.078;21.014;2022-10-17T00:05:25;18.70;;;11.63;;
45254;SDS011;30989;52.078;21.014;2022-10-17T00:07:51;22.05;;;10.15;;
45254;SDS011;30989;52.078;21.014;2022-10-17T00:10:17;22.35;;;11.27;;
45254;SDS011;30989;52.078;21.014;2022-10-17T00:12:44;21.30;;;10.70;;
45254;SDS011;30989;52.078;21.014;2022-10-17T00:15:10;19.83;;;10.98;;
45254;SDS011;30989;52.078;21.014;2022-10-17T00:17:39;26.52;;;12.15;;
45254;SDS011;30989;52.078;21.014;2022-10-17T00:20:04;23.08;;;12.07;;
45254;SDS011;30989;52.078;21.014;2022-10-17T00:22:30;25.52;;;10.82;;
45254;SDS011;30989;52.078;21.014;2022-10-17T00:24:56;25.45;;;11.65;;
45254;SDS011;30989;52.078;21.014;2022-10-17T00:27:21;21.20;;;11.45;;
45254;SDS011;30989;52.078;21.014;2022-10-17T00:29:50;29.60;;;13.90;;
45254;SDS011;30989;52.078;21.014;2022-10-17T00:32:17;20.45;;;11.60;;
45254;SDS011;30989;52.078;21.014;2022-10-17T00:34:43;20.92;;;10.70;;
45254;SDS011;30989;52.078;21.014;2022-10-17T00:37:08;23.70;;;10.80;;
45254;SDS011;30989;52.078;21.014;2022-10-17T00:39:34;21.50;;;11.75;;
45254;SDS011;30989;52.078;21.014;2022-10-17T00:41:59;25.42;;;10.25;;
45254;SDS011;30989;52.078;21.014;2022-10-17T00:47:01;22.88;;;11.52;;
45254;SDS011;30989;52.078;21.014;2022-10-17T00:49:34;22.10;;;11.55;;
45254;SDS011;30989;52.078;21.014;2022-10-17T00:52:02;21.10;;;11.15;;
45254;SDS011;30989;52.078;21.014;2022-10-17T00:54:33;22.00;;;11.43;;
45254;SDS011;30989;52.078;21.014;2022-10-17T00:57:01;24.20;;;11.70;;
45254;SDS011;30989;52.078;21.014;2022-10-17T00:59:28;21.70;;;12.00;;
45254;SDS011;30989;52.078;21.014;2022-10-17T01:02:01;20.50;;;10.80;;
45254;SDS011;30989;52.078;21.014;2022-10-17T01:04:30;25.92;;;11.30;;
45254;SDS011;30989;52.078;21.014;2022-10-17T01:06:56;32.40;;;12.10;;
45254;SDS011;30989;52.078;21.014;2022-10-17T01:09:23;22.90;;;11.35;;
45254;SDS011;30989;52.078;21.014;2022-10-17T01:11:52;23.52;;;11.60;;
45254;SDS011;30989;52.078;21.014;2022-10-17T01:23:51;24.17;;;12.18;;
45254;SDS011;30989;52.078;21.014;2022-10-17T01:32:23;23.17;;;11.27;;
45254;SDS011;30989;52.078;21.014;2022-10-17T01:40:27;21.25;;;11.30;;
45254;SDS011;30989;52.078;21.014;2022-10-17T01:42:58;23.92;;;11.50;;
45254;SDS011;30989;52.078;21.014;2022-10-17T01:45:31;22.00;;;12.38;;
45254;SDS011;30989;52.078;21.014;2022-10-17T01:48:05;21.58;;;12.38;;
45254;SDS011;30989;52.078;21.014;2022-10-17T01:50:38;20.20;;;10.07;;
45254;SDS011;30989;52.078;21.014;2022-10-17T01:53:12;29.33;;;12.52;;
45254;SDS011;30989;52.078;21.014;2022-10-17T01:55:43;20.85;;;10.40;;
45254;SDS011;30989;52.078;21.014;2022-10-17T01:58:19;21.48;;;11.27;;
45254;SDS011;30989;52.078;21.014;2022-10-17T02:00:49;21.73;;;10.32;;
45254;SDS011;30989;52.078;21.014;2022-10-17T02:03:16;19.48;;;10.98;;
45254;SDS011;30989;52.078;21.014;2022-10-17T02:05:44;23.05;;;11.43;;
45254;SDS011;30989;52.078;21.014;2022-10-17T02:08:09;23.35;;;12.60;;
45254;SDS011;30989;52.078;21.014;2022-10-17T02:16:11;27.27;;;11.10;;
45254;SDS011;30989;52.078;21.014;2022-10-17T02:21:39;25.10;;;11.60;;
45254;SDS011;30989;52.078;21.014;2022-10-17T02:24:17;23.85;;;12.20;;
45254;SDS011;30989;52.078;21.014;2022-10-17T02:26:54;22.35;;;12.02;;
45254;SDS011;30989;52.078;21.014;2022-10-17T02:29:29;25.15;;;12.20;;
45254;SDS011;30989;52.078;21.014;2022-10-17T02:32:07;24.83;;;12.27;;
45254;SDS011;30989;52.078;21.014;2022-10-17T02:34:45;22.23;;;12.88;;
45254;SDS011;30989;52.078;21.014;2022-10-17T02:37:15;23.08;;;13.23;;
45254;SDS011;30989;52.078;21.014;2022-10-17T02:39:46;25.13;;;12.63;;
45254;SDS011;30989;52.078;21.014;2022-10-17T02:42:14;26.25;;;13.02;;
45254;SDS011;30989;52.078;21.014;2022-10-17T02:44:42;27.23;;;14.70;;
45254;SDS011;30989;52.078;21.014;2022-10-17T02:49:42;21.88;;;12.77;;
45254;SDS011;30989;52.078;21.014;2022-10-17T02:52:21;26.42;;;12.00;;
45254;SDS011;30989;52.078;21.014;2022-10-17T02:57:30;20.63;;;11.50;;
45254;SDS011;30989;52.078;21.014;2022-10-17T03:00:04;24.42;;;11.27;;
45254;SDS011;30989;52.078;21.014;2022-10-17T03:02:43;29.20;;;14.90;;
45254;SDS011;30989;52.078;21.014;2022-10-17T03:05:12;24.70;;;12.48;;
45254;SDS011;30989;52.078;21.014;2022-10-17T03:07:43;22.75;;;12.20;;
45254;SDS011;30989;52.078;21.014;2022-10-17T03:10:09;22.95;;;12.73;;
45254;SDS011;30989;52.078;21.014;2022-10-17T03:12:35;21.70;;;11.90;;
45254;SDS011;30989;52.078;21.014;2022-10-17T03:15:01;24.00;;;12.32;;
45254;SDS011;30989;52.078;21.014;2022-10-17T03:17:28;23.98;;;12.05;;
45254;SDS011;30989;52.078;21.014;2022-10-17T03:19:53;26.08;;;13.90;;
45254;SDS011;30989;52.078;21.014;2022-10-17T03:22:19;21.00;;;11.88;;
45254;SDS011;30989;52.078;21.014;2022-10-17T03:24:45;32.13;;;17.25;;
45254;SDS011;30989;52.078;21.014;2022-10-17T03:27:11;24.15;;;11.73;;
45254;SDS011;30989;52.078;21.014;2022-10-17T03:29:37;23.33;;;12.70;;
45254;SDS011;30989;52.078;21.014;2022-10-17T03:32:05;24.98;;;12.00;;
45254;SDS011;30989;52.078;21.014;2022-10-17T03:34:30;23.55;;;12.60;;
45254;SDS011;30989;52.078;21.014;2022-10-17T03:36:56;22.25;;;12.23;;
45254;SDS011;30989;52.078;21.014;2022-10-17T03:39:22;21.58;;;12.07;;
45254;SDS011;30989;52.078;21.014;2022-10-17T03:41:48;23.10;;;12.48;;
45254;SDS011;30989;52.078;21.014;2022-10-17T03:44:13;20.73;;;11.57;;
45254;SDS011;30989;52.078;21.014;2022-10-17T03:46:39;31.65;;;13.55;;
45254;SDS011;30989;52.078;21.014;2022-10-17T03:49:05;25.23;;;12.70;;
45254;SDS011;30989;52.078;21.014;2022-10-17T03:51:31;24.67;;;14.23;;
45254;SDS011;30989;52.078;21.014;2022-10-17T03:54:02;29.73;;;14.27;;
45254;SDS011;30989;52.078;21.014;2022-10-17T03:56:28;23.83;;;12.52;;
45254;SDS011;30989;52.078;21.014;2022-10-17T03:58:59;23.13;;;13.13;;
45254;SDS011;30989;52.078;21.014;2022-10-17T04:01:26;22.77;;;12.00;;
45254;SDS011;30989;52.078;21.014;2022-10-17T04:03:53;23.33;;;12.60;;
45254;SDS011;30989;52.078;21.014;2022-10-17T04:06:20;23.90;;;12.32;;
45254;SDS011;30989;52.078;21.014;2022-10-17T04:08:47;44.95;;;21.85;;
45254;SDS011;30989;52.078;21.014;2022-10-17T04:11:19;24.20;;;13.80;;
45254;SDS011;30989;52.078;21.014;2022-10-17T04:13:47;25.40;;;14.85;;
45254;SDS011;30989;52.078;21.014;2022-10-17T04:16:16;26.90;;;14.65;;
45254;SDS011;30989;52.078;21.014;2022-10-17T04:18:56;25.08;;;12.68;;
45254;SDS011;30989;52.078;21.014;2022-10-17T04:21:25;29.13;;;13.23;;
45254;SDS011;30989;52.078;21.014;2022-10-17T04:23:53;28.30;;;14.38;;
45254;SDS011;30989;52.078;21.014;2022-10-17T04:26:32;28.23;;;14.00;;
45254;SDS011;30989;52.078;21.014;2022-10-17T04:28:58;26.00;;;13.35;;
45254;SDS011;30989;52.078;21.014;2022-10-17T04:31:23;27.10;;;15.85;;
45254;SDS011;30989;52.078;21.014;2022-10-17T04:34:15;25.17;;;15.32;;
45254;SDS011;30989;52.078;21.014;2022-10-17T04:36:41;25.05;;;13.15;;
45254;SDS011;30989;52.078;21.014;2022-10-17T04:39:07;25.02;;;13.80;;
45254;SDS011;30989;52.078;21.014;2022-10-17T04:41:34;26.48;;;14.05;;
45254;SDS011;30989;52.078;21.014;2022-10-17T04:44:00;26.08;;;13.90;;
45254;SDS011;30989;52.078;21.014;2022-10-17T04:46:27;25.20;;;13.52;;
45254;SDS011;30989;52.078;21.014;2022-10-17T04:48:53;38.05;;;17.13;;
45254;SDS011;30989;52.078;21.014;2022-10-17T04:51:19;31.33;;;16.33;;
45254;SDS011;30989;52.078;21.014;2022-10-17T04:54:04;29.48;;;14.23;;
45254;SDS011;30989;52.078;21.014;2022-10-17T04:56:30;27.60;;;13.75;;
45254;SDS011;30989;52.078;21.014;2022-10-17T04:58:57;23.80;;;13.80;;
45254;SDS011;30989;52.078;21.014;2022-10-17T05:01:24;26.50;;;13.52;;
45254;SDS011;30989;52.078;21.014;2022-10-17T05:03:51;25.48;;;14.45;;
45254;SDS011;30989;52.078;21.014;2022-10-17T05:06:18;26.92;;;14.55;;
45254;SDS011;30989;52.078;21.014;2022-10-17T05:09:00;24.98;;;13.60;;
45254;SDS011;30989;52.078;21.014;2022-10-17T05:11:27;25.67;;;14.45;;
45254;SDS011;30989;52.078;21.014;2022-10-17T05:13:57;28.90;;;15.48;;
45254;SDS011;30989;52.078;21.014;2022-10-17T05:16:24;28.30;;;13.45;;
45254;SDS011;30989;52.078;21.014;2022-10-17T05:18:52;25.70;;;14.05;;
45254;SDS011;30989;52.078;21.014;2022-10-17T05:21:20;32.33;;;15.23;;
45254;SDS011;30989;52.078;21.014;2022-10-17T05:23:47;30.02;;;15.60;;
45254;SDS011;30989;52.078;21.014;2022-10-17T05:26:13;28.65;;;14.50;;
45254;SDS011;30989;52.078;21.014;2022-10-17T05:28:38;30.88;;;13.23;;
45254;SDS011;30989;52.078;21.014;2022-10-17T05:31:08;25.33;;;14.00;;
45254;SDS011;30989;52.078;21.014;2022-10-17T05:33:34;32.45;;;14.70;;
45254;SDS011;30989;52.078;21.014;2022-10-17T05:36:00;27.52;;;14.45;;
45254;SDS011;30989;52.078;21.014;2022-10-17T05:38:26;28.02;;;13.73;;
45254;SDS011;30989;52.078;21.014;2022-10-17T05:40:58;28.60;;;14.10;;
45254;SDS011;30989;52.078;21.014;2022-10-17T05:43:30;24.70;;;13.65;;
45254;SDS011;30989;52.078;21.014;2022-10-17T05:45:57;24.73;;;13.85;;
45254;SDS011;30989;52.078;21.014;2022-10-17T05:48:23;28.00;;;13.93;;
45254;SDS011;30989;52.078;21.014;2022-10-17T05:50:55;28.20;;;15.82;;
45254;SDS011;30989;52.078;21.014;2022-10-17T05:53:22;34.17;;;13.50;;
45254;SDS011;30989;52.078;21.014;2022-10-17T05:56:00;31.33;;;15.27;;
45254;SDS011;30989;52.078;21.014;2022-10-17T05:58:29;28.85;;;13.80;;
45254;SDS011;30989;52.078;21.014;2022-10-17T06:00:57;26.70;;;15.07;;
45254;SDS011;30989;52.078;21.014;2022-10-17T06:03:25;29.00;;;14.50;;
45254;SDS011;30989;52.078;21.014;2022-10-17T06:05:51;25.98;;;13.50;;
45254;SDS011;30989;52.078;21.014;2022-10-17T06:08:17;28.98;;;12.98;;
45254;SDS011;30989;52.078;21.014;2022-10-17T06:10:45;27.80;;;13.43;;
45254;SDS011;30989;52.078;21.014;2022-10-17T06:13:12;22.92;;;11.93;;
45254;SDS011;30989;52.078;21.014;2022-10-17T06:15:38;22.80;;;12.32;;
45254;SDS011;30989;52.078;21.014;2022-10-17T06:18:06;36.92;;;16.98;;
45254;SDS011;30989;52.078;21.014;2022-10-17T06:20:33;30.35;;;13.35;;
45254;SDS011;30989;52.078;21.014;2022-10-17T06:22:59;27.00;;;13.40;;
45254;SDS011;30989;52.078;21.014;2022-10-17T06:25:40;27.57;;;12.97;;
45254;SDS011;30989;52.078;21.014;2022-10-17T06:28:06;25.13;;;13.32;;
45254;SDS011;30989;52.078;21.014;2022-10-17T06:30:31;30.05;;;12.75;;
45254;SDS011;30989;52.078;21.014;2022-10-17T06:32:57;24.00;;;12.75;;
45254;SDS011;30989;52.078;21.014;2022-10-17T06:35:22;28.48;;;13.00;;
45254;SDS011;30989;52.078;21.014;2022-10-17T06:37:48;22.85;;;11.80;;
45254;SDS011;30989;52.078;21.014;2022-10-17T06:40:13;26.83;;;12.55;;
45254;SDS011;30989;52.078;21.014;2022-10-17T06:42:41;25.25;;;12.95;;
45254;SDS011;30989;52.078;21.014;2022-10-17T06:45:26;24.10;;;12.40;;
45254;SDS011;30989;52.078;21.014;2022-10-17T06:48:17;16.13;;;9.27;;
45254;SDS011;30989;52.078;21.014;2022-10-17T06:50:59;21.90;;;11.88;;
45254;SDS011;30989;52.078;21.014;2022-10-17T06:53:27;21.58;;;11.52;;
45254;SDS011;30989;52.078;21.014;2022-10-17T06:56:12;27.88;;;12.68;;
45254;SDS011;30989;52.078;21.014;2022-10-17T06:58:50;33.10;;;15.82;;
45254;SDS011;30989;52.078;21.014;2022-10-17T07:01:27;26.25;;;11.85;;
45254;SDS011;30989;52.078;21.014;2022-10-17T07:03:57;22.77;;;12.15;;
45254;SDS011;30989;52.078;21.014;2022-10-17T07:06:22;31.48;;;14.25;;
45254;SDS011;30989;52.078;21.014;2022-10-17T07:08:49;26.42;;;11.70;;
45254;SDS011;30989;52.078;21.014;2022-10-17T07:11:18;21.35;;;11.40;;
45254;SDS011;30989;52.078;21.014;2022-10-17T07:13:48;23.63;;;12.95;;
45254;SDS011;30989;52.078;21.014;2022-10-17T07:16:14;28.52;;;11.55;;
45254;SDS011;30989;52.078;21.014;2022-10-17T07:18:42;23.75;;;11.50;;
45254;SDS011;30989;52.078;21.014;2022-10-17T07:21:08;28.75;;;13.18;;
45254;SDS011;30989;52.078;21.014;2022-10-17T07:23:35;26.25;;;12.20;;
45254;SDS011;30989;52.078;21.014;2022-10-17T07:26:03;32.53;;;12.52;;
45254;SDS011;30989;52.078;21.014;2022-10-17T07:28:38;24.45;;;12.32;;
45254;SDS011;30989;52.078;21.014;2022-10-17T07:31:17;33.63;;;14.45;;
45254;SDS011;30989;52.078;21.014;2022-10-17T07:33:44;21.23;;;10.82;;
45254;SDS011;30989;52.078;21.014;2022-10-17T07:36:10;24.30;;;13.65;;
45254;SDS011;30989;52.078;21.014;2022-10-17T07:38:37;23.17;;;11.02;;
45254;SDS011;30989;52.078;21.014;2022-10-17T07:41:04;28.00;;;11.70;;
45254;SDS011;30989;52.078;21.014;2022-10-17T07:43:32;18.77;;;10.90;;
45254;SDS011;30989;52.078;21.014;2022-10-17T07:45:59;44.17;;;21.98;;
45254;SDS011;30989;52.078;21.014;2022-10-17T07:48:26;35.35;;;11.52;;
45254;SDS011;30989;52.078;21.014;2022-10-17T07:50:51;24.73;;;11.98;;
45254;SDS011;30989;52.078;21.014;2022-10-17T07:53:17;21.15;;;10.90;;
45254;SDS011;30989;52.078;21.014;2022-10-17T07:55:43;20.65;;;9.90;;
45254;SDS011;30989;52.078;21.014;2022-10-17T07:58:11;22.70;;;10.93;;
45254;SDS011;30989;52.078;21.014;2022-10-17T08:00:37;22.42;;;11.85;;
45254;SDS011;30989;52.078;21.014;2022-10-17T08:03:03;16.45;;;9.85;;
45254;SDS011;30989;52.078;21.014;2022-10-17T08:05:29;17.65;;;9.48;;
45254;SDS011;30989;52.078;21.014;2022-10-17T08:07:59;19.95;;;10.45;;
45254;SDS011;30989;52.078;21.014;2022-10-17T08:10:24;15.95;;;8.73;;
45254;SDS011;30989;52.078;21.014;2022-10-17T08:12:57;17.15;;;9.10;;
45254;SDS011;30989;52.078;21.014;2022-10-17T08:15:23;16.60;;;9.43;;
45254;SDS011;30989;52.078;21.014;2022-10-17T08:17:50;19.45;;;9.23;;
45254;SDS011;30989;52.078;21.014;2022-10-17T08:20:15;18.88;;;10.18;;
45254;SDS011;30989;52.078;21.014;2022-10-17T08:22:41;17.38;;;9.00;;
45254;SDS011;30989;52.078;21.014;2022-10-17T08:25:07;18.17;;;9.95;;
45254;SDS011;30989;52.078;21.014;2022-10-17T08:27:33;18.83;;;10.73;;
45254;SDS011;30989;52.078;21.014;2022-10-17T08:29:59;20.50;;;10.00;;
45254;SDS011;30989;52.078;21.014;2022-10-17T08:32:25;17.50;;;9.77;;
45254;SDS011;30989;52.078;21.014;2022-10-17T08:34:52;30.05;;;15.70;;
45254;SDS011;30989;52.078;21.014;2022-10-17T08:37:20;17.52;;;9.20;;
45254;SDS011;30989;52.078;21.014;2022-10-17T08:39:45;15.85;;;8.77;;
45254;SDS011;30989;52.078;21.014;2022-10-17T08:55:52;21.70;;;10.52;;
45254;SDS011;30989;52.078;21.014;2022-10-17T08:58:20;19.00;;;10.52;;
45254;SDS011;30989;52.078;21.014;2022-10-17T09:01:05;21.13;;;11.27;;
45254;SDS011;30989;52.078;21.014;2022-10-17T09:06:23;20.58;;;9.13;;
45254;SDS011;30989;52.078;21.014;2022-10-17T09:16:45;18.98;;;8.80;;
45254;SDS011;30989;52.078;21.014;2022-10-17T09:19:24;14.63;;;8.20;;
45254;SDS011;30989;52.078;21.014;2022-10-17T09:21:58;14.95;;;7.57;;
45254;SDS011;30989;52.078;21.014;2022-10-17T09:29:45;16.63;;;8.52;;
45254;SDS011;30989;52.078;21.014;2022-10-17T09:32:14;14.82;;;8.43;;
45254;SDS011;30989;52.078;21.014;2022-10-17T09:34:43;13.02;;;8.07;;
45254;SDS011;30989;52.078;21.014;2022-10-17T09:37:12;14.68;;;8.40;;
45254;SDS011;30989;52.078;21.014;2022-10-17T09:39:40;12.43;;;7.57;;
45254;SDS011;30989;52.078;21.014;2022-10-17T09:42:08;19.42;;;8.18;;
45254;SDS011;30989;52.078;21.014;2022-10-17T09:44:56;21.50;;;8.38;;
45254;SDS011;30989;52.078;21.014;2022-10-17T09:47:28;15.60;;;8.05;;
45254;SDS011;30989;52.078;21.014;2022-10-17T09:49:55;16.35;;;8.30;;
45254;SDS011;30989;52.078;21.014;2022-10-17T09:52:24;14.43;;;7.60;;
45254;SDS011;30989;52.078;21.014;2022-10-17T09:55:00;16.85;;;8.27;;
45254;SDS011;30989;52.078;21.014;2022-10-17T09:57:49;16.10;;;8.30;;
45254;SDS011;30989;52.078;21.014;2022-10-17T10:00:24;18.45;;;8.38;;
45254;SDS011;30989;52.078;21.014;2022-10-17T10:03:08;15.25;;;7.97;;
45254;SDS011;30989;52.078;21.014;2022-10-17T10:05:37;18.08;;;8.23;;
45254;SDS011;30989;52.078;21.014;2022-10-17T10:08:04;14.23;;;7.25;;
45254;SDS011;30989;52.078;21.014;2022-10-17T10:10:36;13.52;;;7.65;;
45254;SDS011;30989;52.078;21.014;2022-10-17T10:21:01;12.73;;;7.25;;
45254;SDS011;30989;52.078;21.014;2022-10-17T10:23:32;12.38;;;6.82;;
45254;SDS011;30989;52.078;21.014;2022-10-17T10:26:00;16.95;;;7.10;;
45254;SDS011;30989;52.078;21.014;2022-10-17T10:28:36;19.17;;;7.88;;
45254;SDS011;30989;52.078;21.014;2022-10-17T10:31:04;12.57;;;7.18;;
45254;SDS011;30989;52.078;21.014;2022-10-17T10:33:32;17.10;;;7.28;;
45254;SDS011;30989;52.078;21.014;2022-10-17T10:36:02;18.35;;;8.30;;
45254;SDS011;30989;52.078;21.014;2022-10-17T10:38:32;17.65;;;7.63;;
45254;SDS011;30989;52.078;21.014;2022-10-17T10:41:02;12.85;;;7.35;;
45254;SDS011;30989;52.078;21.014;2022-10-17T10:43:44;12.65;;;7.38;;
45254;SDS011;30989;52.078;21.014;2022-10-17T10:46:18;14.68;;;8.45;;
45254;SDS011;30989;52.078;21.014;2022-10-17T10:48:54;16.48;;;8.57;;
45254;SDS011;30989;52.078;21.014;2022-10-17T10:51:34;15.55;;;7.97;;
45254;SDS011;30989;52.078;21.014;2022-10-17T10:54:10;20.17;;;7.80;;
45254;SDS011;30989;52.078;21.014;2022-10-17T10:57:00;16.27;;;7.32;;
45254;SDS011;30989;52.078;21.014;2022-10-17T10:59:30;16.52;;;8.02;;
45254;SDS011;30989;52.078;21.014;2022-10-17T11:07:30;17.23;;;7.95;;
45254;SDS011;30989;52.078;21.014;2022-10-17T11:18:02;12.30;;;6.97;;
45254;SDS011;30989;52.078;21.014;2022-10-17T11:23:15;9.93;;;6.75;;
45254;SDS011;30989;52.078;21.014;2022-10-17T11:25:54;11.98;;;7.18;;
45254;SDS011;30989;52.078;21.014;2022-10-17T11:28:24;11.18;;;7.05;;
45254;SDS011;30989;52.078;21.014;2022-10-17T11:36:11;16.02;;;7.28;;
45254;SDS011;30989;52.078;21.014;2022-10-17T11:38:40;12.23;;;6.80;;
45254;SDS011;30989;52.078;21.014;2022-10-17T11:41:08;9.77;;;6.72;;
45254;SDS011;30989;52.078;21.014;2022-10-17T11:43:58;16.58;;;7.53;;
45254;SDS011;30989;52.078;21.014;2022-10-17T11:46:31;11.68;;;7.22;;
45254;SDS011;30989;52.078;21.014;2022-10-17T11:49:12;10.77;;;6.97;;
45254;SDS011;30989;52.078;21.014;2022-10-17T11:54:37;10.05;;;6.72;;
45254;SDS011;30989;52.078;21.014;2022-10-17T11:57:30;18.52;;;8.38;;
45254;SDS011;30989;52.078;21.014;2022-10-17T12:02:56;15.25;;;8.70;;
45254;SDS011;30989;52.078;21.014;2022-10-17T12:08:39;12.20;;;6.68;;
45254;SDS011;30989;52.078;21.014;2022-10-17T12:13:46;14.93;;;7.82;;
45254;SDS011;30989;52.078;21.014;2022-10-17T12:18:45;8.48;;;6.57;;
45254;SDS011;30989;52.078;21.014;2022-10-17T12:21:19;12.30;;;7.35;;
45254;SDS011;30989;52.078;21.014;2022-10-17T12:23:51;13.25;;;6.38;;
45254;SDS011;30989;52.078;21.014;2022-10-17T12:26:25;12.48;;;6.90;;
45254;SDS011;30989;52.078;21.014;2022-10-17T12:28:52;17.27;;;8.20;;
45254;SDS011;30989;52.078;21.014;2022-10-17T12:31:23;10.82;;;6.75;;
45254;SDS011;30989;52.078;21.014;2022-10-17T12:33:51;18.65;;;8.57;;
45254;SDS011;30989;52.078;21.014;2022-10-17T12:44:05;15.20;;;7.45;;
45254;SDS011;30989;52.078;21.014;2022-10-17T12:49:44;10.73;;;6.57;;
45254;SDS011;30989;52.078;21.014;2022-10-17T12:55:11;9.30;;;6.82;;
45254;SDS011;30989;52.078;21.014;2022-10-17T12:57:41;10.80;;;5.70;;
45254;SDS011;30989;52.078;21.014;2022-10-17T13:03:00;9.73;;;6.68;;
45254;SDS011;30989;52.078;21.014;2022-10-17T13:05:34;11.05;;;7.03;;
45254;SDS011;30989;52.078;21.014;2022-10-17T13:08:04;13.95;;;7.47;;
45254;SDS011;30989;52.078;21.014;2022-10-17T13:10:33;16.53;;;7.37;;
45254;SDS011;30989;52.078;21.014;2022-10-17T13:15:50;14.25;;;7.15;;
45254;SDS011;30989;52.078;21.014;2022-10-17T13:18:18;12.13;;;6.93;;
45254;SDS011;30989;52.078;21.014;2022-10-17T13:21:02;18.13;;;6.65;;
45254;SDS011;30989;52.078;21.014;2022-10-17T13:23:38;15.88;;;7.22;;
45254;SDS011;30989;52.078;21.014;2022-10-17T13:28:30;15.73;;;7.55;;
45254;SDS011;30989;52.078;21.014;2022-10-17T13:30:55;10.07;;;6.35;;
45254;SDS011;30989;52.078;21.014;2022-10-17T13:33:37;14.18;;;7.70;;
45254;SDS011;30989;52.078;21.014;2022-10-17T13:36:13;14.18;;;8.55;;
45254;SDS011;30989;52.078;21.014;2022-10-17T13:38:43;17.80;;;7.60;;
45254;SDS011;30989;52.078;21.014;2022-10-17T13:41:10;13.10;;;7.65;;
45254;SDS011;30989;52.078;21.014;2022-10-17T13:43:38;12.20;;;7.53;;
45254;SDS011;30989;52.078;21.014;2022-10-17T13:46:04;11.93;;;7.50;;
45254;SDS011;30989;52.078;21.014;2022-10-17T13:48:32;14.18;;;6.75;;
45254;SDS011;30989;52.078;21.014;2022-10-17T13:51:01;10.98;;;6.97;;
45254;SDS011;30989;52.078;21.014;2022-10-17T13:53:30;22.15;;;7.32;;
45254;SDS011;30989;52.078;21.014;2022-10-17T13:58:25;15.80;;;7.70;;
45254;SDS011;30989;52.078;21.014;2022-10-17T14:00:55;15.48;;;7.30;;
45254;SDS011;30989;52.078;21.014;2022-10-17T14:03:21;18.50;;;8.48;;
45254;SDS011;30989;52.078;21.014;2022-10-17T14:05:57;13.27;;;7.88;;
45254;SDS011;30989;52.078;21.014;2022-10-17T14:08:24;10.50;;;6.53;;
45254;SDS011;30989;52.078;21.014;2022-10-17T14:10:49;15.35;;;8.23;;
45254;SDS011;30989;52.078;21.014;2022-10-17T14:13:18;15.50;;;8.20;;
45254;SDS011;30989;52.078;21.014;2022-10-17T14:15:46;13.55;;;7.60;;
45254;SDS011;30989;52.078;21.014;2022-10-17T14:18:13;15.07;;;8.90;;
45254;SDS011;30989;52.078;21.014;2022-10-17T14:20:46;18.67;;;9.65;;
45254;SDS011;30989;52.078;21.014;2022-10-17T14:26:06;14.55;;;8.43;;
45254;SDS011;30989;52.078;21.014;2022-10-17T14:28:35;20.10;;;9.52;;
45254;SDS011;30989;52.078;21.014;2022-10-17T14:31:14;19.55;;;8.68;;
45254;SDS011;30989;52.078;21.014;2022-10-17T14:33:52;38.35;;;19.70;;
45254;SDS011;30989;52.078;21.014;2022-10-17T14:36:37;29.88;;;12.73;;
45254;SDS011;30989;52.078;21.014;2022-10-17T14:39:07;25.50;;;10.90;;
45254;SDS011;30989;52.078;21.014;2022-10-17T14:41:44;20.75;;;10.68;;
45254;SDS011;30989;52.078;21.014;2022-10-17T14:44:46;15.85;;;8.70;;
45254;SDS011;30989;52.078;21.014;2022-10-17T14:47:03;20.48;;;10.23;;
45254;SDS011;30989;52.078;21.014;2022-10-17T14:49:35;25.20;;;12.13;;
45254;SDS011;30989;52.078;21.014;2022-10-17T14:54:54;34.40;;;15.88;;
45254;SDS011;30989;52.078;21.014;2022-10-17T14:57:23;40.20;;;17.15;;
45254;SDS011;30989;52.078;21.014;2022-10-17T14:59:54;43.33;;;18.40;;
45254;SDS011;30989;52.078;21.014;2022-10-17T15:02:21;50.55;;;20.48;;
45254;SDS011;30989;52.078;21.014;2022-10-17T15:04:48;42.92;;;18.65;;
45254;SDS011;30989;52.078;21.014;2022-10-17T15:07:14;34.88;;;15.90;;
45254;SDS011;30989;52.078;21.014;2022-10-17T15:09:41;31.70;;;14.13;;
45254;SDS011;30989;52.078;21.014;2022-10-17T15:12:15;27.63;;;11.88;;
45254;SDS011;30989;52.078;21.014;2022-10-17T15:14:42;30.15;;;13.10;;
45254;SDS011;30989;52.078;21.014;2022-10-17T15:17:12;30.30;;;13.65;;
45254;SDS011;30989;52.078;21.014;2022-10-17T15:19:40;38.58;;;16.75;;
45254;SDS011;30989;52.078;21.014;2022-10-17T15:22:05;37.13;;;17.23;;
45254;SDS011;30989;52.078;21.014;2022-10-17T15:24:31;45.10;;;19.40;;
45254;SDS011;30989;52.078;21.014;2022-10-17T15:26:56;43.83;;;17.45;;
45254;SDS011;30989;52.078;21.014;2022-10-17T15:29:22;32.88;;;14.38;;
45254;SDS011;30989;52.078;21.014;2022-10-17T15:31:48;30.75;;;13.60;;
45254;SDS011;30989;52.078;21.014;2022-10-17T15:34:13;28.15;;;13.85;;
45254;SDS011;30989;52.078;21.014;2022-10-17T15:36:39;28.23;;;12.98;;
45254;SDS011;30989;52.078;21.014;2022-10-17T15:39:06;32.17;;;13.32;;
45254;SDS011;30989;52.078;21.014;2022-10-17T15:41:33;23.33;;;12.00;;
45254;SDS011;30989;52.078;21.014;2022-10-17T15:43:59;27.30;;;11.90;;
45254;SDS011;30989;52.078;21.014;2022-10-17T15:46:26;30.70;;;15.30;;
45254;SDS011;30989;52.078;21.014;2022-10-17T15:48:53;29.10;;;16.00;;
45254;SDS011;30989;52.078;21.014;2022-10-17T15:51:20;21.25;;;10.40;;
45254;SDS011;30989;52.078;21.014;2022-10-17T15:53:46;16.92;;;10.07;;
45254;SDS011;30989;52.078;21.014;2022-10-17T15:56:22;18.17;;;9.43;;
45254;SDS011;30989;52.078;21.014;2022-10-17T15:58:56;16.88;;;8.68;;
45254;SDS011;30989;52.078;21.014;2022-10-17T16:01:25;20.00;;;8.82;;
45254;SDS011;30989;52.078;21.014;2022-10-17T16:03:54;17.23;;;8.88;;
45254;SDS011;30989;52.078;21.014;2022-10-17T16:06:20;26.48;;;9.80;;
45254;SDS011;30989;52.078;21.014;2022-10-17T16:08:46;19.85;;;9.43;;
45254;SDS011;30989;52.078;21.014;2022-10-17T16:13:51;22.95;;;10.13;;
45254;SDS011;30989;52.078;21.014;2022-10-17T16:16:19;17.83;;;10.27;;
45254;SDS011;30989;52.078;21.014;2022-10-17T16:18:46;36.80;;;19.33;;
45254;SDS011;30989;52.078;21.014;2022-10-17T16:21:12;20.33;;;11.02;;
45254;SDS011;30989;52.078;21.014;2022-10-17T16:23:39;20.98;;;10.52;;
45254;SDS011;30989;52.078;21.014;2022-10-17T16:26:05;20.77;;;10.25;;
45254;SDS011;30989;52.078;21.014;2022-10-17T16:28:31;20.90;;;11.45;;
45254;SDS011;30989;52.078;21.014;2022-10-17T16:30:57;24.75;;;11.45;;
45254;SDS011;30989;52.078;21.014;2022-10-17T16:33:24;30.05;;;12.38;;
45254;SDS011;30989;52.078;21.014;2022-10-17T16:35:50;26.02;;;12.90;;
45254;SDS011;30989;52.078;21.014;2022-10-17T16:38:16;24.85;;;12.40;;
45254;SDS011;30989;52.078;21.014;2022-10-17T16:40:41;25.27;;;12.07;;
45254;SDS011;30989;52.078;21.014;2022-10-17T16:43:13;25.75;;;12.65;;
45254;SDS011;30989;52.078;21.014;2022-10-17T16:45:38;24.73;;;12.25;;
45254;SDS011;30989;52.078;21.014;2022-10-17T16:48:04;22.25;;;10.82;;
45254;SDS011;30989;52.078;21.014;2022-10-17T16:50:30;20.52;;;10.25;;